Amanda Park, Washington
Current Conditions -  °F | °C
As of 11:53 PM on Friday 24 Oct 2014 (Local Time) from KHQM Reporting Station
Light Rain Light Rain  
Wind Chill: 51°   Ceiling: 4400
Heat Index: 51°   Visibility: 7mi
Dew Point: 49°   Wind: 18mph
Humidity: 92%   Direction: 50°NE
Pressure: 29.66"   Gusts: 26mph
Location:  47.46°N, 123.89°W
Report Text: KHQM 250653Z AUTO 05016G23KT 7SM -RA FEW014 BKN044 OVC070 11/09 A2966 RMK AO2 SLP048 P0003 T01060094
Loading
Personal Weather Stations






























Interactive Weather Map
Tropical Storm Tracking
New forecast layout! Learn more

10-Day Weather Forecast

Advertisements
Track Severe Weather on mobile